createdAt,value
2023-07-04T00:04:44.500Z,4.4
2023-07-04T00:19:53.803Z,4.4
2023-07-04T00:35:03.097Z,3.8
2023-07-04T00:50:12.539Z,3.4
2023-07-04T01:05:22.074Z,2.6
2023-07-04T01:20:31.393Z,2
2023-07-04T01:35:40.210Z,1.8
2023-07-04T01:50:49.139Z,2.3
2023-07-04T02:05:58.069Z,1.9
2023-07-04T02:21:07.712Z,2
2023-07-04T02:36:17.264Z,2.1
2023-07-04T02:51:26.967Z,2.3
2023-07-04T03:06:36.350Z,1.8
2023-07-04T03:21:46.657Z,2.6
2023-07-04T03:36:56.469Z,1.9
2023-07-04T03:52:05.755Z,2
2023-07-04T04:07:15.635Z,2.3
2023-07-04T04:22:25.039Z,2
2023-07-04T04:37:37.349Z,2.2
2023-07-04T04:52:46.776Z,2.3
2023-07-04T05:07:56.411Z,2.3
2023-07-04T05:23:06.178Z,2.3
2023-07-04T05:38:15.887Z,2.3
2023-07-04T05:53:25.905Z,2
2023-07-04T06:08:35.919Z,2.6
2023-07-04T06:23:45.869Z,2.4
2023-07-04T06:38:56.957Z,2.2
2023-07-04T06:54:06.757Z,2.6
2023-07-04T07:09:16.172Z,3
2023-07-04T07:24:29.468Z,4.3
2023-07-04T07:39:39.622Z,3.1
2023-07-04T07:54:49.741Z,3.2
2023-07-04T08:09:59.595Z,2.6
2023-07-04T08:25:09.855Z,2.3
2023-07-04T08:40:19.392Z,2.5
2023-07-04T08:55:29.041Z,2.2
2023-07-04T09:10:39.080Z,2.5
2023-07-04T09:25:49.769Z,2.4
2023-07-04T09:41:00.823Z,2.9
2023-07-04T09:56:10.991Z,2.8
2023-07-04T10:11:21.413Z,2.7
2023-07-04T10:26:31.091Z,2.7
2023-07-04T10:41:41.878Z,3
2023-07-04T10:56:51.643Z,3.4
2023-07-04T11:12:01.345Z,2.9
2023-07-04T11:27:10.979Z,4.1
2023-07-04T11:42:20.772Z,3.7
2023-07-04T11:57:30.346Z,3.3
2023-07-04T12:12:39.650Z,3.6
2023-07-04T12:27:49.431Z,3.3
2023-07-04T12:44:40.986Z,3.5
2023-07-04T12:59:57.521Z,3.2
2023-07-04T13:15:07.856Z,3.4
2023-07-04T13:30:23.440Z,2.9
2023-07-04T13:45:33.120Z,3.4
2023-07-04T14:20:51.390Z,3.9
2023-07-04T14:36:02.269Z,3.7
2023-07-04T14:51:12.585Z,3.8
2023-07-04T15:06:26.901Z,3.8
2023-07-04T15:21:37.877Z,3.2
2023-07-04T15:36:47.825Z,3.3
2023-07-04T15:51:56.756Z,3.4
2023-07-04T16:07:06.215Z,3.6
2023-07-04T16:22:15.241Z,3.2
2023-07-04T16:37:24.463Z,3.8
2023-07-04T16:52:34.324Z,4.1
2023-07-04T17:07:44.223Z,2.8
2023-07-04T17:22:53.934Z,4.6
2023-07-04T17:38:03.004Z,4.9
2023-07-04T17:53:12.182Z,4
2023-07-04T18:08:21.467Z,3.6
2023-07-04T18:23:31.426Z,5.1
2023-07-04T18:38:44.289Z,3.2
2023-07-04T18:53:54.247Z,4.1
2023-07-04T19:09:04.107Z,4.4
2023-07-04T19:24:13.832Z,4
2023-07-04T19:39:23.664Z,4.8
2023-07-04T19:54:33.589Z,4.1
2023-07-04T20:09:42.927Z,4.6
2023-07-04T20:24:52.777Z,5
2023-07-04T20:40:02.380Z,5
2023-07-04T20:55:12.400Z,5.9
2023-07-04T21:10:22.236Z,5.3
2023-07-04T21:25:31.825Z,6
2023-07-04T21:40:43.321Z,4.9
2023-07-04T21:55:54.243Z,5.2
2023-07-04T22:11:05.624Z,5.9
2023-07-04T22:26:15.894Z,4.9
2023-07-04T22:41:26.100Z,5.4
2023-07-04T22:56:36.515Z,5
2023-07-04T23:11:46.588Z,5.8
2023-07-04T23:26:56.651Z,4.7
2023-07-04T23:42:05.721Z,4.5
2023-07-04T23:57:15.732Z,5
